sensor_id;sensor_type;location;lat;lon;timestamp;P1;durP1;ratioP1;P2;durP2;ratioP2
54241;SDS011;40156;51.080;17.082;2022-07-30T00:00:49;6.20;;;3.13;;
54241;SDS011;40156;51.080;17.082;2022-07-30T00:03:16;5.47;;;2.80;;
54241;SDS011;40156;51.080;17.082;2022-07-30T00:05:44;5.53;;;3.17;;
54241;SDS011;40156;51.080;17.082;2022-07-30T00:08:11;5.57;;;2.65;;
54241;SDS011;40156;51.080;17.082;2022-07-30T00:10:39;4.68;;;2.40;;
54241;SDS011;40156;51.080;17.082;2022-07-30T00:13:06;6.43;;;2.55;;
54241;SDS011;40156;51.080;17.082;2022-07-30T00:15:33;8.43;;;2.70;;
54241;SDS011;40156;51.080;17.082;2022-07-30T00:18:03;2.95;;;2.25;;
54241;SDS011;40156;51.080;17.082;2022-07-30T00:20:30;5.45;;;2.13;;
54241;SDS011;40156;51.080;17.082;2022-07-30T00:23:01;5.35;;;2.47;;
54241;SDS011;40156;51.080;17.082;2022-07-30T00:25:28;3.97;;;2.38;;
54241;SDS011;40156;51.080;17.082;2022-07-30T00:27:56;4.57;;;2.35;;
54241;SDS011;40156;51.080;17.082;2022-07-30T00:30:23;9.50;;;2.63;;
54241;SDS011;40156;51.080;17.082;2022-07-30T00:32:51;3.75;;;2.20;;
54241;SDS011;40156;51.080;17.082;2022-07-30T00:35:18;5.68;;;2.15;;
54241;SDS011;40156;51.080;17.082;2022-07-30T00:37:45;3.05;;;2.22;;
54241;SDS011;40156;51.080;17.082;2022-07-30T00:40:21;7.25;;;2.38;;
54241;SDS011;40156;51.080;17.082;2022-07-30T00:42:48;4.32;;;1.90;;
54241;SDS011;40156;51.080;17.082;2022-07-30T00:45:16;2.60;;;1.95;;
54241;SDS011;40156;51.080;17.082;2022-07-30T00:47:44;5.25;;;2.20;;
54241;SDS011;40156;51.080;17.082;2022-07-30T00:50:12;3.97;;;2.08;;
54241;SDS011;40156;51.080;17.082;2022-07-30T00:52:40;3.78;;;2.20;;
54241;SDS011;40156;51.080;17.082;2022-07-30T00:55:08;2.65;;;1.90;;
54241;SDS011;40156;51.080;17.082;2022-07-30T00:57:36;5.75;;;3.10;;
54241;SDS011;40156;51.080;17.082;2022-07-30T01:00:06;5.85;;;2.05;;
54241;SDS011;40156;51.080;17.082;2022-07-30T01:02:34;6.88;;;2.10;;
54241;SDS011;40156;51.080;17.082;2022-07-30T01:05:14;4.70;;;2.00;;
54241;SDS011;40156;51.080;17.082;2022-07-30T01:07:42;4.03;;;2.03;;
54241;SDS011;40156;51.080;17.082;2022-07-30T01:10:10;2.83;;;2.03;;
54241;SDS011;40156;51.080;17.082;2022-07-30T01:12:37;3.28;;;1.65;;
54241;SDS011;40156;51.080;17.082;2022-07-30T01:15:06;3.78;;;1.90;;
54241;SDS011;40156;51.080;17.082;2022-07-30T01:17:34;3.72;;;2.20;;
54241;SDS011;40156;51.080;17.082;2022-07-30T01:20:06;3.20;;;1.90;;
54241;SDS011;40156;51.080;17.082;2022-07-30T01:22:42;4.78;;;1.90;;
54241;SDS011;40156;51.080;17.082;2022-07-30T01:25:13;6.47;;;1.90;;
54241;SDS011;40156;51.080;17.082;2022-07-30T01:27:54;2.92;;;1.90;;
54241;SDS011;40156;51.080;17.082;2022-07-30T01:30:24;4.20;;;2.08;;
54241;SDS011;40156;51.080;17.082;2022-07-30T01:36:19;3.85;;;1.88;;
54241;SDS011;40156;51.080;17.082;2022-07-30T01:38:48;5.15;;;2.00;;
54241;SDS011;40156;51.080;17.082;2022-07-30T01:41:16;3.30;;;1.95;;
54241;SDS011;40156;51.080;17.082;2022-07-30T01:43:44;4.45;;;2.50;;
54241;SDS011;40156;51.080;17.082;2022-07-30T01:46:12;4.70;;;2.03;;
54241;SDS011;40156;51.080;17.082;2022-07-30T01:48:41;3.10;;;2.13;;
54241;SDS011;40156;51.080;17.082;2022-07-30T01:51:09;5.60;;;2.40;;
54241;SDS011;40156;51.080;17.082;2022-07-30T01:53:47;6.30;;;2.17;;
54241;SDS011;40156;51.080;17.082;2022-07-30T01:56:15;4.88;;;2.00;;
54241;SDS011;40156;51.080;17.082;2022-07-30T01:58:51;4.80;;;2.00;;
54241;SDS011;40156;51.080;17.082;2022-07-30T02:01:19;2.30;;;1.80;;
54241;SDS011;40156;51.080;17.082;2022-07-30T02:03:47;5.85;;;2.17;;
54241;SDS011;40156;51.080;17.082;2022-07-30T02:06:22;2.90;;;2.28;;
54241;SDS011;40156;51.080;17.082;2022-07-30T02:08:57;7.53;;;2.13;;
54241;SDS011;40156;51.080;17.082;2022-07-30T02:11:26;10.80;;;2.03;;
54241;SDS011;40156;51.080;17.082;2022-07-30T02:13:58;2.70;;;2.00;;
54241;SDS011;40156;51.080;17.082;2022-07-30T02:16:26;2.97;;;1.88;;
54241;SDS011;40156;51.080;17.082;2022-07-30T02:21:52;3.97;;;2.45;;
54241;SDS011;40156;51.080;17.082;2022-07-30T02:24:23;2.83;;;2.00;;
54241;SDS011;40156;51.080;17.082;2022-07-30T02:26:57;3.70;;;2.05;;
54241;SDS011;40156;51.080;17.082;2022-07-30T02:29:27;4.00;;;2.10;;
54241;SDS011;40156;51.080;17.082;2022-07-30T02:31:56;5.20;;;2.10;;
54241;SDS011;40156;51.080;17.082;2022-07-30T02:34:24;6.97;;;1.88;;
54241;SDS011;40156;51.080;17.082;2022-07-30T02:36:51;2.80;;;1.55;;
54241;SDS011;40156;51.080;17.082;2022-07-30T02:39:19;4.38;;;2.00;;
54241;SDS011;40156;51.080;17.082;2022-07-30T02:41:47;4.72;;;1.80;;
54241;SDS011;40156;51.080;17.082;2022-07-30T02:44:31;3.38;;;2.22;;
54241;SDS011;40156;51.080;17.082;2022-07-30T02:47:00;2.70;;;1.88;;
54241;SDS011;40156;51.080;17.082;2022-07-30T02:49:39;3.57;;;1.93;;
54241;SDS011;40156;51.080;17.082;2022-07-30T02:52:08;2.65;;;2.05;;
54241;SDS011;40156;51.080;17.082;2022-07-30T02:54:43;5.55;;;2.33;;
54241;SDS011;40156;51.080;17.082;2022-07-30T02:57:10;2.53;;;1.75;;
54241;SDS011;40156;51.080;17.082;2022-07-30T02:59:39;3.10;;;2.03;;
54241;SDS011;40156;51.080;17.082;2022-07-30T03:02:07;5.60;;;1.80;;
54241;SDS011;40156;51.080;17.082;2022-07-30T03:04:35;1.98;;;1.67;;
54241;SDS011;40156;51.080;17.082;2022-07-30T03:07:04;3.00;;;1.73;;
54241;SDS011;40156;51.080;17.082;2022-07-30T03:12:36;3.63;;;2.03;;
54241;SDS011;40156;51.080;17.082;2022-07-30T03:15:10;4.97;;;1.70;;
54241;SDS011;40156;51.080;17.082;2022-07-30T03:17:40;2.45;;;1.67;;
54241;SDS011;40156;51.080;17.082;2022-07-30T03:20:09;4.60;;;2.28;;
54241;SDS011;40156;51.080;17.082;2022-07-30T03:22:41;3.17;;;1.98;;
54241;SDS011;40156;51.080;17.082;2022-07-30T03:25:09;5.13;;;2.10;;
54241;SDS011;40156;51.080;17.082;2022-07-30T03:27:37;3.30;;;2.00;;
54241;SDS011;40156;51.080;17.082;2022-07-30T03:30:05;5.13;;;2.38;;
54241;SDS011;40156;51.080;17.082;2022-07-30T03:32:33;4.45;;;2.17;;
54241;SDS011;40156;51.080;17.082;2022-07-30T03:35:08;2.85;;;2.05;;
54241;SDS011;40156;51.080;17.082;2022-07-30T03:37:43;2.72;;;2.08;;
54241;SDS011;40156;51.080;17.082;2022-07-30T03:40:12;4.72;;;2.10;;
54241;SDS011;40156;51.080;17.082;2022-07-30T03:42:39;3.75;;;1.90;;
54241;SDS011;40156;51.080;17.082;2022-07-30T03:45:07;3.03;;;1.90;;
54241;SDS011;40156;51.080;17.082;2022-07-30T03:47:35;4.50;;;1.80;;
54241;SDS011;40156;51.080;17.082;2022-07-30T03:50:03;5.25;;;1.98;;
54241;SDS011;40156;51.080;17.082;2022-07-30T03:52:32;2.80;;;1.60;;
54241;SDS011;40156;51.080;17.082;2022-07-30T03:55:01;2.92;;;1.95;;
54241;SDS011;40156;51.080;17.082;2022-07-30T03:57:28;3.22;;;2.42;;
54241;SDS011;40156;51.080;17.082;2022-07-30T03:59:58;2.40;;;1.73;;
54241;SDS011;40156;51.080;17.082;2022-07-30T04:05:02;1.77;;;1.50;;
54241;SDS011;40156;51.080;17.082;2022-07-30T04:07:30;3.00;;;1.92;;
54241;SDS011;40156;51.080;17.082;2022-07-30T04:09:57;3.30;;;1.67;;
54241;SDS011;40156;51.080;17.082;2022-07-30T04:12:24;3.28;;;1.73;;
54241;SDS011;40156;51.080;17.082;2022-07-30T04:14:52;3.53;;;1.88;;
54241;SDS011;40156;51.080;17.082;2022-07-30T04:17:20;3.10;;;1.67;;
54241;SDS011;40156;51.080;17.082;2022-07-30T04:19:49;4.00;;;1.65;;
54241;SDS011;40156;51.080;17.082;2022-07-30T04:22:22;3.63;;;2.00;;
54241;SDS011;40156;51.080;17.082;2022-07-30T04:24:51;3.17;;;1.67;;
54241;SDS011;40156;51.080;17.082;2022-07-30T04:27:19;1.92;;;1.63;;
54241;SDS011;40156;51.080;17.082;2022-07-30T04:29:50;3.88;;;1.83;;
54241;SDS011;40156;51.080;17.082;2022-07-30T04:32:18;3.40;;;1.73;;
54241;SDS011;40156;51.080;17.082;2022-07-30T04:34:47;5.25;;;1.70;;
54241;SDS011;40156;51.080;17.082;2022-07-30T04:37:15;3.42;;;2.00;;
54241;SDS011;40156;51.080;17.082;2022-07-30T04:39:43;3.50;;;1.63;;
54241;SDS011;40156;51.080;17.082;2022-07-30T04:42:10;3.33;;;2.08;;
54241;SDS011;40156;51.080;17.082;2022-07-30T04:44:38;3.10;;;1.60;;
54241;SDS011;40156;51.080;17.082;2022-07-30T04:47:05;3.67;;;1.83;;
54241;SDS011;40156;51.080;17.082;2022-07-30T04:52:10;6.95;;;1.77;;
54241;SDS011;40156;51.080;17.082;2022-07-30T04:54:52;2.50;;;1.55;;
54241;SDS011;40156;51.080;17.082;2022-07-30T04:57:20;2.33;;;1.58;;
54241;SDS011;40156;51.080;17.082;2022-07-30T04:59:48;2.25;;;1.40;;
54241;SDS011;40156;51.080;17.082;2022-07-30T05:02:15;5.60;;;1.90;;
54241;SDS011;40156;51.080;17.082;2022-07-30T05:04:45;2.20;;;1.70;;
54241;SDS011;40156;51.080;17.082;2022-07-30T05:07:13;3.90;;;1.85;;
54241;SDS011;40156;51.080;17.082;2022-07-30T05:09:40;3.25;;;1.80;;
54241;SDS011;40156;51.080;17.082;2022-07-30T05:12:09;2.22;;;1.60;;
54241;SDS011;40156;51.080;17.082;2022-07-30T05:17:50;3.97;;;1.92;;
54241;SDS011;40156;51.080;17.082;2022-07-30T05:20:19;2.20;;;1.80;;
54241;SDS011;40156;51.080;17.082;2022-07-30T05:22:47;2.28;;;1.60;;
54241;SDS011;40156;51.080;17.082;2022-07-30T05:25:17;1.98;;;1.35;;
54241;SDS011;40156;51.080;17.082;2022-07-30T05:27:44;6.13;;;1.58;;
54241;SDS011;40156;51.080;17.082;2022-07-30T05:30:12;2.08;;;1.75;;
54241;SDS011;40156;51.080;17.082;2022-07-30T05:32:40;4.28;;;2.00;;
54241;SDS011;40156;51.080;17.082;2022-07-30T05:35:08;2.75;;;1.83;;
54241;SDS011;40156;51.080;17.082;2022-07-30T05:37:35;2.88;;;1.52;;
54241;SDS011;40156;51.080;17.082;2022-07-30T05:40:19;5.88;;;1.80;;
54241;SDS011;40156;51.080;17.082;2022-07-30T05:42:47;2.50;;;1.67;;
54241;SDS011;40156;51.080;17.082;2022-07-30T05:45:14;1.95;;;1.70;;
54241;SDS011;40156;51.080;17.082;2022-07-30T05:47:45;3.78;;;1.77;;
54241;SDS011;40156;51.080;17.082;2022-07-30T05:50:12;3.47;;;1.60;;
54241;SDS011;40156;51.080;17.082;2022-07-30T05:52:39;2.33;;;1.60;;
54241;SDS011;40156;51.080;17.082;2022-07-30T05:55:07;2.90;;;1.77;;
54241;SDS011;40156;51.080;17.082;2022-07-30T05:57:35;3.08;;;1.45;;
54241;SDS011;40156;51.080;17.082;2022-07-30T06:00:06;1.70;;;1.50;;
54241;SDS011;40156;51.080;17.082;2022-07-30T06:02:37;3.03;;;1.88;;
54241;SDS011;40156;51.080;17.082;2022-07-30T06:05:10;2.83;;;1.50;;
54241;SDS011;40156;51.080;17.082;2022-07-30T06:07:38;3.00;;;1.55;;
54241;SDS011;40156;51.080;17.082;2022-07-30T06:10:13;5.07;;;1.73;;
54241;SDS011;40156;51.080;17.082;2022-07-30T06:12:40;6.22;;;1.70;;
54241;SDS011;40156;51.080;17.082;2022-07-30T06:15:08;4.95;;;1.80;;
54241;SDS011;40156;51.080;17.082;2022-07-30T06:17:39;2.35;;;1.75;;
54241;SDS011;40156;51.080;17.082;2022-07-30T06:20:09;4.15;;;1.67;;
54241;SDS011;40156;51.080;17.082;2022-07-30T06:22:36;4.10;;;1.73;;
54241;SDS011;40156;51.080;17.082;2022-07-30T06:25:04;6.03;;;1.67;;
54241;SDS011;40156;51.080;17.082;2022-07-30T06:27:32;4.53;;;1.60;;
54241;SDS011;40156;51.080;17.082;2022-07-30T06:30:07;3.55;;;1.60;;
54241;SDS011;40156;51.080;17.082;2022-07-30T06:32:34;1.73;;;1.48;;
54241;SDS011;40156;51.080;17.082;2022-07-30T06:35:14;6.00;;;2.05;;
54241;SDS011;40156;51.080;17.082;2022-07-30T06:37:41;2.75;;;1.88;;
54241;SDS011;40156;51.080;17.082;2022-07-30T06:40:28;5.50;;;2.00;;
54241;SDS011;40156;51.080;17.082;2022-07-30T06:43:10;2.05;;;1.77;;
54241;SDS011;40156;51.080;17.082;2022-07-30T06:45:37;2.63;;;1.77;;
54241;SDS011;40156;51.080;17.082;2022-07-30T06:48:05;4.55;;;1.88;;
54241;SDS011;40156;51.080;17.082;2022-07-30T06:50:34;1.98;;;1.60;;
54241;SDS011;40156;51.080;17.082;2022-07-30T06:53:01;4.18;;;1.63;;
54241;SDS011;40156;51.080;17.082;2022-07-30T06:55:36;4.40;;;1.77;;
54241;SDS011;40156;51.080;17.082;2022-07-30T06:58:04;3.03;;;1.58;;
54241;SDS011;40156;51.080;17.082;2022-07-30T07:00:32;2.80;;;1.50;;
54241;SDS011;40156;51.080;17.082;2022-07-30T07:02:59;3.63;;;1.83;;
54241;SDS011;40156;51.080;17.082;2022-07-30T07:05:27;2.30;;;1.80;;
54241;SDS011;40156;51.080;17.082;2022-07-30T07:07:54;2.78;;;1.60;;
54241;SDS011;40156;51.080;17.082;2022-07-30T07:10:26;2.90;;;1.80;;
54241;SDS011;40156;51.080;17.082;2022-07-30T07:12:54;4.40;;;1.80;;
54241;SDS011;40156;51.080;17.082;2022-07-30T07:15:21;2.75;;;1.95;;
54241;SDS011;40156;51.080;17.082;2022-07-30T07:18:03;6.05;;;1.83;;
54241;SDS011;40156;51.080;17.082;2022-07-30T07:20:37;3.17;;;1.70;;
54241;SDS011;40156;51.080;17.082;2022-07-30T07:23:11;3.08;;;1.67;;
54241;SDS011;40156;51.080;17.082;2022-07-30T07:25:40;5.43;;;2.00;;
54241;SDS011;40156;51.080;17.082;2022-07-30T07:28:07;3.42;;;1.90;;
54241;SDS011;40156;51.080;17.082;2022-07-30T07:33:06;3.58;;;1.85;;
54241;SDS011;40156;51.080;17.082;2022-07-30T07:35:34;2.45;;;1.60;;
54241;SDS011;40156;51.080;17.082;2022-07-30T07:40:43;3.13;;;2.00;;
54241;SDS011;40156;51.080;17.082;2022-07-30T07:43:10;5.85;;;1.95;;
54241;SDS011;40156;51.080;17.082;2022-07-30T07:45:52;3.58;;;2.05;;
54241;SDS011;40156;51.080;17.082;2022-07-30T07:48:27;5.05;;;1.80;;
54241;SDS011;40156;51.080;17.082;2022-07-30T07:50:55;3.20;;;1.95;;
54241;SDS011;40156;51.080;17.082;2022-07-30T07:53:26;5.18;;;2.17;;
54241;SDS011;40156;51.080;17.082;2022-07-30T07:55:54;4.45;;;2.20;;
54241;SDS011;40156;51.080;17.082;2022-07-30T07:58:23;3.33;;;2.00;;
54241;SDS011;40156;51.080;17.082;2022-07-30T08:00:52;5.40;;;1.92;;
54241;SDS011;40156;51.080;17.082;2022-07-30T08:03:20;5.82;;;2.30;;
54241;SDS011;40156;51.080;17.082;2022-07-30T08:05:47;4.57;;;1.92;;
54241;SDS011;40156;51.080;17.082;2022-07-30T08:08:32;3.22;;;2.00;;
54241;SDS011;40156;51.080;17.082;2022-07-30T08:10:59;2.35;;;1.88;;
54241;SDS011;40156;51.080;17.082;2022-07-30T08:13:26;4.78;;;1.90;;
54241;SDS011;40156;51.080;17.082;2022-07-30T08:16:14;2.70;;;1.92;;
54241;SDS011;40156;51.080;17.082;2022-07-30T08:18:41;6.25;;;2.10;;
54241;SDS011;40156;51.080;17.082;2022-07-30T08:21:08;6.25;;;1.90;;
54241;SDS011;40156;51.080;17.082;2022-07-30T08:23:36;4.97;;;2.20;;
54241;SDS011;40156;51.080;17.082;2022-07-30T08:26:23;3.42;;;2.08;;
54241;SDS011;40156;51.080;17.082;2022-07-30T08:28:51;6.32;;;2.15;;
54241;SDS011;40156;51.080;17.082;2022-07-30T08:31:20;4.30;;;2.00;;
54241;SDS011;40156;51.080;17.082;2022-07-30T08:33:48;5.65;;;2.28;;
54241;SDS011;40156;51.080;17.082;2022-07-30T08:36:15;3.97;;;2.00;;
54241;SDS011;40156;51.080;17.082;2022-07-30T08:38:49;3.20;;;1.83;;
54241;SDS011;40156;51.080;17.082;2022-07-30T08:41:20;4.70;;;2.13;;
54241;SDS011;40156;51.080;17.082;2022-07-30T08:43:48;4.68;;;2.00;;
54241;SDS011;40156;51.080;17.082;2022-07-30T08:46:16;3.35;;;1.80;;
54241;SDS011;40156;51.080;17.082;2022-07-30T08:48:44;3.42;;;2.08;;
54241;SDS011;40156;51.080;17.082;2022-07-30T08:51:13;4.03;;;2.05;;
54241;SDS011;40156;51.080;17.082;2022-07-30T08:53:42;3.22;;;2.13;;
54241;SDS011;40156;51.080;17.082;2022-07-30T08:56:10;3.20;;;1.90;;
54241;SDS011;40156;51.080;17.082;2022-07-30T08:58:44;3.33;;;2.28;;
54241;SDS011;40156;51.080;17.082;2022-07-30T09:01:13;4.53;;;2.22;;
54241;SDS011;40156;51.080;17.082;2022-07-30T09:06:34;4.50;;;2.33;;
54241;SDS011;40156;51.080;17.082;2022-07-30T09:09:02;5.88;;;2.20;;
54241;SDS011;40156;51.080;17.082;2022-07-30T09:11:29;5.55;;;2.13;;
54241;SDS011;40156;51.080;17.082;2022-07-30T09:14:07;4.40;;;2.17;;
54241;SDS011;40156;51.080;17.082;2022-07-30T09:16:34;4.13;;;2.20;;
54241;SDS011;40156;51.080;17.082;2022-07-30T09:19:15;2.95;;;2.10;;
54241;SDS011;40156;51.080;17.082;2022-07-30T09:21:53;4.55;;;2.22;;
54241;SDS011;40156;51.080;17.082;2022-07-30T09:24:28;4.65;;;2.13;;
54241;SDS011;40156;51.080;17.082;2022-07-30T09:27:07;2.42;;;2.00;;
54241;SDS011;40156;51.080;17.082;2022-07-30T09:32:18;5.60;;;2.45;;
54241;SDS011;40156;51.080;17.082;2022-07-30T09:34:46;4.65;;;2.08;;
54241;SDS011;40156;51.080;17.082;2022-07-30T09:39:41;3.30;;;2.30;;
54241;SDS011;40156;51.080;17.082;2022-07-30T09:44:50;6.97;;;2.40;;
54241;SDS011;40156;51.080;17.082;2022-07-30T09:50:05;4.57;;;2.90;;
54241;SDS011;40156;51.080;17.082;2022-07-30T09:52:34;4.55;;;3.13;;
54241;SDS011;40156;51.080;17.082;2022-07-30T09:55:11;4.45;;;2.08;;
54241;SDS011;40156;51.080;17.082;2022-07-30T09:57:53;4.22;;;2.45;;
54241;SDS011;40156;51.080;17.082;2022-07-30T10:00:25;3.28;;;2.55;;
54241;SDS011;40156;51.080;17.082;2022-07-30T10:02:53;7.82;;;3.65;;
54241;SDS011;40156;51.080;17.082;2022-07-30T10:05:21;5.88;;;2.92;;
54241;SDS011;40156;51.080;17.082;2022-07-30T10:07:51;3.63;;;2.60;;
54241;SDS011;40156;51.080;17.082;2022-07-30T10:10:20;6.25;;;2.70;;
54241;SDS011;40156;51.080;17.082;2022-07-30T10:12:56;7.05;;;3.15;;
54241;SDS011;40156;51.080;17.082;2022-07-30T10:15:33;4.13;;;2.70;;
54241;SDS011;40156;51.080;17.082;2022-07-30T10:18:02;7.65;;;2.70;;
54241;SDS011;40156;51.080;17.082;2022-07-30T10:20:32;9.57;;;3.40;;
54241;SDS011;40156;51.080;17.082;2022-07-30T10:23:01;6.30;;;3.25;;
54241;SDS011;40156;51.080;17.082;2022-07-30T10:25:36;6.90;;;3.42;;
54241;SDS011;40156;51.080;17.082;2022-07-30T10:28:21;5.03;;;3.65;;
54241;SDS011;40156;51.080;17.082;2022-07-30T10:30:53;5.55;;;3.65;;
54241;SDS011;40156;51.080;17.082;2022-07-30T10:33:22;5.03;;;3.47;;
54241;SDS011;40156;51.080;17.082;2022-07-30T10:44:32;6.53;;;4.03;;
54241;SDS011;40156;51.080;17.082;2022-07-30T10:47:14;6.60;;;3.88;;
54241;SDS011;40156;51.080;17.082;2022-07-30T10:49:48;5.20;;;3.42;;
54241;SDS011;40156;51.080;17.082;2022-07-30T10:55:17;6.78;;;3.97;;
54241;SDS011;40156;51.080;17.082;2022-07-30T10:58:01;6.63;;;3.85;;
54241;SDS011;40156;51.080;17.082;2022-07-30T11:00:32;5.70;;;3.58;;
54241;SDS011;40156;51.080;17.082;2022-07-30T11:03:14;5.22;;;4.00;;
54241;SDS011;40156;51.080;17.082;2022-07-30T11:05:52;7.35;;;4.15;;
54241;SDS011;40156;51.080;17.082;2022-07-30T11:11:55;5.28;;;4.15;;
54241;SDS011;40156;51.080;17.082;2022-07-30T11:17:14;6.32;;;3.90;;
54241;SDS011;40156;51.080;17.082;2022-07-30T11:22:29;6.13;;;4.45;;
54241;SDS011;40156;51.080;17.082;2022-07-30T11:24:56;7.75;;;4.40;;
54241;SDS011;40156;51.080;17.082;2022-07-30T11:27:44;5.25;;;4.43;;
54241;SDS011;40156;51.080;17.082;2022-07-30T11:35:41;5.53;;;4.22;;
54241;SDS011;40156;51.080;17.082;2022-07-30T11:38:14;6.00;;;4.47;;
54241;SDS011;40156;51.080;17.082;2022-07-30T11:43:24;8.50;;;4.88;;
54241;SDS011;40156;51.080;17.082;2022-07-30T11:46:18;6.20;;;4.78;;
54241;SDS011;40156;51.080;17.082;2022-07-30T11:49:01;5.85;;;4.82;;
54241;SDS011;40156;51.080;17.082;2022-07-30T11:51:50;8.32;;;5.13;;
54241;SDS011;40156;51.080;17.082;2022-07-30T11:54:19;4.82;;;3.95;;
54241;SDS011;40156;51.080;17.082;2022-07-30T11:56:50;6.90;;;4.65;;
54241;SDS011;40156;51.080;17.082;2022-07-30T12:02:17;6.35;;;4.88;;
54241;SDS011;40156;51.080;17.082;2022-07-30T12:04:47;5.55;;;4.95;;
54241;SDS011;40156;51.080;17.082;2022-07-30T12:07:23;6.80;;;5.28;;
54241;SDS011;40156;51.080;17.082;2022-07-30T12:09:50;5.82;;;5.10;;
54241;SDS011;40156;51.080;17.082;2022-07-30T12:14:52;7.60;;;5.63;;
54241;SDS011;40156;51.080;17.082;2022-07-30T12:17:39;8.13;;;5.70;;
54241;SDS011;40156;51.080;17.082;2022-07-30T12:20:16;7.32;;;5.10;;
54241;SDS011;40156;51.080;17.082;2022-07-30T12:25:28;8.32;;;6.25;;
54241;SDS011;40156;51.080;17.082;2022-07-30T12:27:56;8.70;;;5.95;;
54241;SDS011;40156;51.080;17.082;2022-07-30T12:30:23;12.25;;;6.25;;
54241;SDS011;40156;51.080;17.082;2022-07-30T12:32:53;8.00;;;6.57;;
54241;SDS011;40156;51.080;17.082;2022-07-30T12:35:21;11.52;;;6.20;;
54241;SDS011;40156;51.080;17.082;2022-07-30T12:38:00;10.55;;;7.50;;
54241;SDS011;40156;51.080;17.082;2022-07-30T12:40:28;9.60;;;6.55;;
54241;SDS011;40156;51.080;17.082;2022-07-30T12:43:04;8.98;;;6.85;;
54241;SDS011;40156;51.080;17.082;2022-07-30T12:45:39;8.73;;;7.32;;
54241;SDS011;40156;51.080;17.082;2022-07-30T12:48:20;11.20;;;7.55;;
54241;SDS011;40156;51.080;17.082;2022-07-30T12:51:02;10.77;;;7.68;;
54241;SDS011;40156;51.080;17.082;2022-07-30T12:53:32;11.25;;;7.40;;
54241;SDS011;40156;51.080;17.082;2022-07-30T12:56:10;12.52;;;8.25;;
54241;SDS011;40156;51.080;17.082;2022-07-30T12:58:38;11.57;;;8.63;;
54241;SDS011;40156;51.080;17.082;2022-07-30T13:01:05;12.75;;;8.80;;
54241;SDS011;40156;51.080;17.082;2022-07-30T13:03:33;15.07;;;8.95;;
54241;SDS011;40156;51.080;17.082;2022-07-30T13:06:00;12.88;;;8.98;;
54241;SDS011;40156;51.080;17.082;2022-07-30T13:08:43;13.57;;;9.20;;
54241;SDS011;40156;51.080;17.082;2022-07-30T13:11:18;13.20;;;9.00;;
54241;SDS011;40156;51.080;17.082;2022-07-30T13:13:46;14.98;;;9.35;;
54241;SDS011;40156;51.080;17.082;2022-07-30T13:16:13;12.43;;;8.55;;
54241;SDS011;40156;51.080;17.082;2022-07-30T13:18:41;12.07;;;9.40;;
54241;SDS011;40156;51.080;17.082;2022-07-30T13:21:08;10.82;;;8.95;;
54241;SDS011;40156;51.080;17.082;2022-07-30T13:23:36;10.20;;;8.82;;
54241;SDS011;40156;51.080;17.082;2022-07-30T13:26:04;13.75;;;9.35;;
54241;SDS011;40156;51.080;17.082;2022-07-30T13:28:32;14.02;;;9.63;;
54241;SDS011;40156;51.080;17.082;2022-07-30T13:31:06;13.10;;;9.80;;
54241;SDS011;40156;51.080;17.082;2022-07-30T13:33:48;13.43;;;9.45;;
54241;SDS011;40156;51.080;17.082;2022-07-30T13:36:17;13.00;;;9.82;;
54241;SDS011;40156;51.080;17.082;2022-07-30T13:38:45;12.85;;;9.98;;
54241;SDS011;40156;51.080;17.082;2022-07-30T13:41:18;11.50;;;9.55;;
54241;SDS011;40156;51.080;17.082;2022-07-30T13:43:47;13.68;;;9.15;;
54241;SDS011;40156;51.080;17.082;2022-07-30T13:46:14;13.68;;;9.57;;
54241;SDS011;40156;51.080;17.082;2022-07-30T13:48:41;14.43;;;9.48;;
54241;SDS011;40156;51.080;17.082;2022-07-30T13:51:09;13.15;;;10.07;;
54241;SDS011;40156;51.080;17.082;2022-07-30T13:53:36;11.52;;;10.05;;
54241;SDS011;40156;51.080;17.082;2022-07-30T13:56:04;14.00;;;9.93;;
54241;SDS011;40156;51.080;17.082;2022-07-30T14:01:28;11.57;;;9.50;;
54241;SDS011;40156;51.080;17.082;2022-07-30T14:03:55;13.40;;;9.50;;
54241;SDS011;40156;51.080;17.082;2022-07-30T14:06:23;11.88;;;8.73;;
54241;SDS011;40156;51.080;17.082;2022-07-30T14:08:50;10.18;;;8.02;;
54241;SDS011;40156;51.080;17.082;2022-07-30T14:11:18;11.93;;;8.45;;
54241;SDS011;40156;51.080;17.082;2022-07-30T14:13:45;11.02;;;7.82;;
54241;SDS011;40156;51.080;17.082;2022-07-30T14:16:12;9.13;;;7.78;;
54241;SDS011;40156;51.080;17.082;2022-07-30T14:19:00;10.50;;;8.10;;
54241;SDS011;40156;51.080;17.082;2022-07-30T14:21:27;7.97;;;6.15;;
54241;SDS011;40156;51.080;17.082;2022-07-30T14:23:54;8.82;;;5.78;;
54241;SDS011;40156;51.080;17.082;2022-07-30T14:26:32;8.30;;;5.43;;
54241;SDS011;40156;51.080;17.082;2022-07-30T14:29:03;5.70;;;4.75;;
54241;SDS011;40156;51.080;17.082;2022-07-30T14:31:39;7.20;;;5.13;;
54241;SDS011;40156;51.080;17.082;2022-07-30T14:34:07;6.68;;;4.75;;
54241;SDS011;40156;51.080;17.082;2022-07-30T14:36:34;7.07;;;6.15;;
54241;SDS011;40156;51.080;17.082;2022-07-30T14:39:02;7.03;;;6.00;;
54241;SDS011;40156;51.080;17.082;2022-07-30T14:41:30;5.88;;;5.22;;
54241;SDS011;40156;51.080;17.082;2022-07-30T14:43:57;6.88;;;5.57;;
54241;SDS011;40156;51.080;17.082;2022-07-30T14:46:32;6.85;;;5.18;;
54241;SDS011;40156;51.080;17.082;2022-07-30T14:48:59;7.10;;;6.05;;
54241;SDS011;40156;51.080;17.082;2022-07-30T14:51:29;6.93;;;6.15;;
54241;SDS011;40156;51.080;17.082;2022-07-30T14:54:01;6.68;;;5.97;;
54241;SDS011;40156;51.080;17.082;2022-07-30T14:56:28;7.65;;;6.65;;
54241;SDS011;40156;51.080;17.082;2022-07-30T14:58:55;7.88;;;6.85;;
54241;SDS011;40156;51.080;17.082;2022-07-30T15:01:23;7.20;;;6.13;;
54241;SDS011;40156;51.080;17.082;2022-07-30T15:03:50;6.90;;;5.65;;
54241;SDS011;40156;51.080;17.082;2022-07-30T15:06:18;6.85;;;6.15;;
54241;SDS011;40156;51.080;17.082;2022-07-30T15:08:45;7.28;;;6.57;;
54241;SDS011;40156;51.080;17.082;2022-07-30T15:13:49;6.18;;;4.85;;
54241;SDS011;40156;51.080;17.082;2022-07-30T15:18:47;5.25;;;4.75;;
54241;SDS011;40156;51.080;17.082;2022-07-30T15:21:15;5.75;;;4.95;;
54241;SDS011;40156;51.080;17.082;2022-07-30T15:23:45;5.75;;;5.15;;
54241;SDS011;40156;51.080;17.082;2022-07-30T15:26:14;5.97;;;5.28;;
54241;SDS011;40156;51.080;17.082;2022-07-30T15:28:41;6.63;;;4.95;;
54241;SDS011;40156;51.080;17.082;2022-07-30T15:31:09;5.43;;;4.68;;
54241;SDS011;40156;51.080;17.082;2022-07-30T15:33:36;7.25;;;5.20;;
54241;SDS011;40156;51.080;17.082;2022-07-30T15:36:04;6.60;;;5.30;;
54241;SDS011;40156;51.080;17.082;2022-07-30T15:43:54;9.40;;;5.70;;
54241;SDS011;40156;51.080;17.082;2022-07-30T15:46:25;6.93;;;5.20;;
54241;SDS011;40156;51.080;17.082;2022-07-30T15:48:54;6.20;;;4.80;;
54241;SDS011;40156;51.080;17.082;2022-07-30T15:51:23;6.15;;;4.57;;
54241;SDS011;40156;51.080;17.082;2022-07-30T15:53:53;5.25;;;4.13;;
54241;SDS011;40156;51.080;17.082;2022-07-30T15:56:21;5.32;;;4.03;;
54241;SDS011;40156;51.080;17.082;2022-07-30T15:58:48;5.30;;;4.20;;
54241;SDS011;40156;51.080;17.082;2022-07-30T16:01:15;5.03;;;3.83;;
54241;SDS011;40156;51.080;17.082;2022-07-30T16:03:44;6.32;;;4.68;;
54241;SDS011;40156;51.080;17.082;2022-07-30T16:06:20;6.00;;;5.05;;
54241;SDS011;40156;51.080;17.082;2022-07-30T16:08:47;7.70;;;4.70;;
54241;SDS011;40156;51.080;17.082;2022-07-30T16:11:14;8.93;;;4.22;;
54241;SDS011;40156;51.080;17.082;2022-07-30T16:13:42;5.90;;;4.40;;
54241;SDS011;40156;51.080;17.082;2022-07-30T16:16:09;5.38;;;4.40;;
54241;SDS011;40156;51.080;17.082;2022-07-30T16:18:37;5.13;;;4.30;;